Cleveland, Georgia
Current Conditions -  °F | °C
As of 9:53 PM on Saturday 20 Dec 2014 (Local Time) from KGVL Reporting Station
Haze Haze  
Wind Chill: 39°   Ceiling: 1900
Heat Index: 43°   Visibility: 4mi
Dew Point: 41°   Wind: 6mph
Humidity: 93%   Direction: 110°ESE
Pressure: 30.22"   Gusts: NA
Location:  34.6°N, 83.76°W
Report Text: KGVL 210253Z AUTO 11005KT 4SM BR FEW006 OVC019 06/05 A3022 RMK AO2 SLP232 T00610050 51005
Loading
Personal Weather Stations






























Interactive Weather Map New forecast layout! Learn more

10-Day Weather Forecast

Advertisements
Track Severe Weather on mobile